sensor_id;sensor_type;location;lat;lon;timestamp;P1;durP1;ratioP1;P2;durP2;ratioP2
66721;SDS011;53633;49.932;10.884;2023-10-19T00:01:12;23.33;;;12.10;;
66721;SDS011;53633;49.932;10.884;2023-10-19T00:03:39;27.23;;;12.18;;
66721;SDS011;53633;49.932;10.884;2023-10-19T00:06:06;24.50;;;13.10;;
66721;SDS011;53633;49.932;10.884;2023-10-19T00:08:33;28.60;;;13.45;;
66721;SDS011;53633;49.932;10.884;2023-10-19T00:10:59;27.37;;;13.00;;
66721;SDS011;53633;49.932;10.884;2023-10-19T00:13:27;26.63;;;12.43;;
66721;SDS011;53633;49.932;10.884;2023-10-19T00:15:55;28.75;;;12.55;;
66721;SDS011;53633;49.932;10.884;2023-10-19T00:18:22;25.45;;;11.73;;
66721;SDS011;53633;49.932;10.884;2023-10-19T00:20:50;22.65;;;11.38;;
66721;SDS011;53633;49.932;10.884;2023-10-19T00:23:18;24.03;;;11.43;;
66721;SDS011;53633;49.932;10.884;2023-10-19T00:25:46;25.17;;;12.07;;
66721;SDS011;53633;49.932;10.884;2023-10-19T00:28:12;25.92;;;12.02;;
66721;SDS011;53633;49.932;10.884;2023-10-19T00:30:40;25.95;;;13.10;;
66721;SDS011;53633;49.932;10.884;2023-10-19T00:33:07;22.65;;;11.40;;
66721;SDS011;53633;49.932;10.884;2023-10-19T00:35:34;25.93;;;12.30;;
66721;SDS011;53633;49.932;10.884;2023-10-19T00:38:01;25.20;;;12.02;;
66721;SDS011;53633;49.932;10.884;2023-10-19T00:40:28;27.00;;;11.88;;
66721;SDS011;53633;49.932;10.884;2023-10-19T00:42:54;27.40;;;13.73;;
66721;SDS011;53633;49.932;10.884;2023-10-19T00:45:21;25.42;;;12.77;;
66721;SDS011;53633;49.932;10.884;2023-10-19T00:47:49;26.53;;;13.13;;
66721;SDS011;53633;49.932;10.884;2023-10-19T00:50:16;26.63;;;12.27;;
66721;SDS011;53633;49.932;10.884;2023-10-19T00:52:42;29.17;;;12.82;;
66721;SDS011;53633;49.932;10.884;2023-10-19T00:55:09;27.63;;;12.18;;
66721;SDS011;53633;49.932;10.884;2023-10-19T00:57:36;27.90;;;12.15;;
66721;SDS011;53633;49.932;10.884;2023-10-19T01:00:03;25.53;;;11.67;;
66721;SDS011;53633;49.932;10.884;2023-10-19T01:02:31;25.70;;;12.50;;
66721;SDS011;53633;49.932;10.884;2023-10-19T01:04:59;24.42;;;11.80;;
66721;SDS011;53633;49.932;10.884;2023-10-19T01:07:26;26.85;;;12.77;;
66721;SDS011;53633;49.932;10.884;2023-10-19T01:09:54;24.58;;;12.18;;
66721;SDS011;53633;49.932;10.884;2023-10-19T01:12:21;26.40;;;13.00;;
66721;SDS011;53633;49.932;10.884;2023-10-19T01:15:00;25.25;;;12.48;;
66721;SDS011;53633;49.932;10.884;2023-10-19T01:17:30;27.75;;;13.27;;
66721;SDS011;53633;49.932;10.884;2023-10-19T01:19:57;23.38;;;12.20;;
66721;SDS011;53633;49.932;10.884;2023-10-19T01:22:25;24.75;;;12.43;;
66721;SDS011;53633;49.932;10.884;2023-10-19T01:24:53;27.83;;;12.67;;
66721;SDS011;53633;49.932;10.884;2023-10-19T01:27:20;25.85;;;12.93;;
66721;SDS011;53633;49.932;10.884;2023-10-19T01:29:46;28.65;;;13.38;;
66721;SDS011;53633;49.932;10.884;2023-10-19T01:32:13;26.52;;;13.23;;
66721;SDS011;53633;49.932;10.884;2023-10-19T01:34:40;25.35;;;13.32;;
66721;SDS011;53633;49.932;10.884;2023-10-19T01:37:06;27.70;;;13.63;;
66721;SDS011;53633;49.932;10.884;2023-10-19T01:39:33;27.52;;;13.32;;
66721;SDS011;53633;49.932;10.884;2023-10-19T01:42:02;26.23;;;13.60;;
66721;SDS011;53633;49.932;10.884;2023-10-19T01:44:29;26.63;;;13.20;;
66721;SDS011;53633;49.932;10.884;2023-10-19T01:46:55;26.55;;;12.98;;
66721;SDS011;53633;49.932;10.884;2023-10-19T01:49:22;28.20;;;13.10;;
66721;SDS011;53633;49.932;10.884;2023-10-19T01:51:49;24.88;;;12.85;;
66721;SDS011;53633;49.932;10.884;2023-10-19T01:54:16;27.55;;;13.82;;
66721;SDS011;53633;49.932;10.884;2023-10-19T01:56:43;29.27;;;13.65;;
66721;SDS011;53633;49.932;10.884;2023-10-19T01:59:11;27.77;;;13.25;;
66721;SDS011;53633;49.932;10.884;2023-10-19T02:01:37;29.03;;;14.17;;
66721;SDS011;53633;49.932;10.884;2023-10-19T02:04:05;26.13;;;13.15;;
66721;SDS011;53633;49.932;10.884;2023-10-19T02:06:32;29.52;;;13.45;;
66721;SDS011;53633;49.932;10.884;2023-10-19T02:09:00;27.95;;;13.32;;
66721;SDS011;53633;49.932;10.884;2023-10-19T02:11:28;27.63;;;13.43;;
66721;SDS011;53633;49.932;10.884;2023-10-19T02:13:55;26.53;;;13.70;;
66721;SDS011;53633;49.932;10.884;2023-10-19T02:16:24;26.98;;;13.23;;
66721;SDS011;53633;49.932;10.884;2023-10-19T02:18:51;29.23;;;13.93;;
66721;SDS011;53633;49.932;10.884;2023-10-19T02:21:18;27.70;;;13.95;;
66721;SDS011;53633;49.932;10.884;2023-10-19T02:23:45;29.23;;;14.65;;
66721;SDS011;53633;49.932;10.884;2023-10-19T02:26:12;27.77;;;13.23;;
66721;SDS011;53633;49.932;10.884;2023-10-19T02:28:38;29.13;;;14.05;;
66721;SDS011;53633;49.932;10.884;2023-10-19T02:31:05;30.40;;;14.40;;
66721;SDS011;53633;49.932;10.884;2023-10-19T02:33:33;29.17;;;14.43;;
66721;SDS011;53633;49.932;10.884;2023-10-19T02:36:00;31.83;;;15.20;;
66721;SDS011;53633;49.932;10.884;2023-10-19T02:38:27;31.93;;;15.60;;
66721;SDS011;53633;49.932;10.884;2023-10-19T02:40:53;34.25;;;16.15;;
66721;SDS011;53633;49.932;10.884;2023-10-19T02:43:20;33.25;;;15.23;;
66721;SDS011;53633;49.932;10.884;2023-10-19T02:45:47;33.35;;;16.45;;
66721;SDS011;53633;49.932;10.884;2023-10-19T02:48:13;32.85;;;16.08;;
66721;SDS011;53633;49.932;10.884;2023-10-19T02:50:42;33.83;;;15.63;;
66721;SDS011;53633;49.932;10.884;2023-10-19T02:53:09;33.80;;;15.32;;
66721;SDS011;53633;49.932;10.884;2023-10-19T02:55:35;35.60;;;16.67;;
66721;SDS011;53633;49.932;10.884;2023-10-19T02:58:02;33.17;;;16.30;;
66721;SDS011;53633;49.932;10.884;2023-10-19T03:00:30;36.85;;;16.50;;
66721;SDS011;53633;49.932;10.884;2023-10-19T03:02:57;37.10;;;15.90;;
66721;SDS011;53633;49.932;10.884;2023-10-19T03:05:24;36.47;;;15.90;;
66721;SDS011;53633;49.932;10.884;2023-10-19T03:07:52;31.38;;;14.88;;
66721;SDS011;53633;49.932;10.884;2023-10-19T03:10:18;35.28;;;16.48;;
66721;SDS011;53633;49.932;10.884;2023-10-19T03:12:45;32.47;;;15.95;;
66721;SDS011;53633;49.932;10.884;2023-10-19T03:15:12;32.07;;;15.53;;
66721;SDS011;53633;49.932;10.884;2023-10-19T03:17:38;35.28;;;16.35;;
66721;SDS011;53633;49.932;10.884;2023-10-19T03:20:09;34.88;;;16.88;;
66721;SDS011;53633;49.932;10.884;2023-10-19T03:22:36;34.78;;;16.73;;
66721;SDS011;53633;49.932;10.884;2023-10-19T03:25:06;33.78;;;16.27;;
66721;SDS011;53633;49.932;10.884;2023-10-19T03:27:33;32.37;;;16.10;;
66721;SDS011;53633;49.932;10.884;2023-10-19T03:30:00;31.60;;;16.00;;
66721;SDS011;53633;49.932;10.884;2023-10-19T03:32:27;36.33;;;17.33;;
66721;SDS011;53633;49.932;10.884;2023-10-19T03:34:54;32.90;;;15.27;;
66721;SDS011;53633;49.932;10.884;2023-10-19T03:37:21;37.67;;;16.90;;
66721;SDS011;53633;49.932;10.884;2023-10-19T03:39:48;34.47;;;16.73;;
66721;SDS011;53633;49.932;10.884;2023-10-19T03:42:16;36.25;;;16.30;;
66721;SDS011;53633;49.932;10.884;2023-10-19T03:44:43;34.30;;;16.42;;
66721;SDS011;53633;49.932;10.884;2023-10-19T03:47:09;34.72;;;16.15;;
66721;SDS011;53633;49.932;10.884;2023-10-19T03:49:36;33.65;;;17.00;;
66721;SDS011;53633;49.932;10.884;2023-10-19T03:52:03;35.30;;;16.87;;
66721;SDS011;53633;49.932;10.884;2023-10-19T03:54:30;39.40;;;16.20;;
66721;SDS011;53633;49.932;10.884;2023-10-19T03:56:57;34.20;;;16.25;;
66721;SDS011;53633;49.932;10.884;2023-10-19T03:59:25;33.10;;;15.27;;
66721;SDS011;53633;49.932;10.884;2023-10-19T04:01:52;31.52;;;14.60;;
66721;SDS011;53633;49.932;10.884;2023-10-19T04:04:19;30.90;;;15.17;;
66721;SDS011;53633;49.932;10.884;2023-10-19T04:06:45;33.08;;;15.18;;
66721;SDS011;53633;49.932;10.884;2023-10-19T04:09:12;32.22;;;16.25;;
66721;SDS011;53633;49.932;10.884;2023-10-19T04:11:39;33.92;;;15.65;;
66721;SDS011;53633;49.932;10.884;2023-10-19T04:14:05;33.83;;;15.85;;
66721;SDS011;53633;49.932;10.884;2023-10-19T04:16:33;30.87;;;15.27;;
66721;SDS011;53633;49.932;10.884;2023-10-19T04:19:00;33.25;;;16.35;;
66721;SDS011;53633;49.932;10.884;2023-10-19T04:21:27;32.72;;;15.52;;
66721;SDS011;53633;49.932;10.884;2023-10-19T04:23:53;33.35;;;15.75;;
66721;SDS011;53633;49.932;10.884;2023-10-19T04:26:20;36.75;;;17.45;;
66721;SDS011;53633;49.932;10.884;2023-10-19T04:28:47;32.60;;;16.50;;
66721;SDS011;53633;49.932;10.884;2023-10-19T04:31:13;35.40;;;17.02;;
66721;SDS011;53633;49.932;10.884;2023-10-19T04:33:42;32.22;;;15.07;;
66721;SDS011;53633;49.932;10.884;2023-10-19T04:36:08;37.78;;;16.20;;
66721;SDS011;53633;49.932;10.884;2023-10-19T04:38:35;34.35;;;16.42;;
66721;SDS011;53633;49.932;10.884;2023-10-19T04:41:05;35.40;;;16.27;;
66721;SDS011;53633;49.932;10.884;2023-10-19T04:43:33;32.85;;;15.68;;
66721;SDS011;53633;49.932;10.884;2023-10-19T04:45:59;33.47;;;16.63;;
66721;SDS011;53633;49.932;10.884;2023-10-19T04:48:26;30.67;;;15.20;;
66721;SDS011;53633;49.932;10.884;2023-10-19T04:50:54;32.88;;;16.40;;
66721;SDS011;53633;49.932;10.884;2023-10-19T04:53:21;33.10;;;16.57;;
66721;SDS011;53633;49.932;10.884;2023-10-19T04:55:47;29.23;;;15.95;;
66721;SDS011;53633;49.932;10.884;2023-10-19T04:58:14;34.38;;;16.50;;
66721;SDS011;53633;49.932;10.884;2023-10-19T05:00:41;28.45;;;14.95;;
66721;SDS011;53633;49.932;10.884;2023-10-19T05:03:07;32.05;;;16.58;;
66721;SDS011;53633;49.932;10.884;2023-10-19T05:05:34;30.43;;;15.87;;
66721;SDS011;53633;49.932;10.884;2023-10-19T05:08:02;29.35;;;15.02;;
66721;SDS011;53633;49.932;10.884;2023-10-19T05:10:29;30.77;;;14.98;;
66721;SDS011;53633;49.932;10.884;2023-10-19T05:12:56;30.58;;;15.60;;
66721;SDS011;53633;49.932;10.884;2023-10-19T05:15:22;30.88;;;15.55;;
66721;SDS011;53633;49.932;10.884;2023-10-19T05:17:49;34.00;;;16.50;;
66721;SDS011;53633;49.932;10.884;2023-10-19T05:20:16;29.33;;;15.52;;
66721;SDS011;53633;49.932;10.884;2023-10-19T05:22:42;31.63;;;15.68;;
66721;SDS011;53633;49.932;10.884;2023-10-19T05:25:11;32.65;;;14.90;;
66721;SDS011;53633;49.932;10.884;2023-10-19T05:27:37;33.85;;;15.82;;
66721;SDS011;53633;49.932;10.884;2023-10-19T05:30:05;29.37;;;14.83;;
66721;SDS011;53633;49.932;10.884;2023-10-19T05:32:32;33.45;;;15.52;;
66721;SDS011;53633;49.932;10.884;2023-10-19T05:34:59;30.50;;;15.50;;
66721;SDS011;53633;49.932;10.884;2023-10-19T05:37:26;30.77;;;14.75;;
66721;SDS011;53633;49.932;10.884;2023-10-19T05:39:53;35.22;;;16.45;;
66721;SDS011;53633;49.932;10.884;2023-10-19T05:42:21;31.47;;;16.20;;
66721;SDS011;53633;49.932;10.884;2023-10-19T05:44:47;31.38;;;15.20;;
66721;SDS011;53633;49.932;10.884;2023-10-19T05:47:14;34.58;;;16.48;;
66721;SDS011;53633;49.932;10.884;2023-10-19T05:49:41;34.95;;;15.80;;
66721;SDS011;53633;49.932;10.884;2023-10-19T05:52:07;33.13;;;17.10;;
66721;SDS011;53633;49.932;10.884;2023-10-19T05:54:34;31.47;;;15.07;;
66721;SDS011;53633;49.932;10.884;2023-10-19T05:57:01;33.13;;;15.55;;
66721;SDS011;53633;49.932;10.884;2023-10-19T05:59:29;32.63;;;16.45;;
66721;SDS011;53633;49.932;10.884;2023-10-19T06:01:55;30.30;;;15.90;;
66721;SDS011;53633;49.932;10.884;2023-10-19T06:04:22;29.33;;;14.63;;
66721;SDS011;53633;49.932;10.884;2023-10-19T06:06:49;28.67;;;15.47;;
66721;SDS011;53633;49.932;10.884;2023-10-19T06:09:15;28.83;;;15.60;;
66721;SDS011;53633;49.932;10.884;2023-10-19T06:11:42;33.25;;;15.90;;
66721;SDS011;53633;49.932;10.884;2023-10-19T06:14:09;32.20;;;16.10;;
66721;SDS011;53633;49.932;10.884;2023-10-19T06:16:37;32.85;;;16.77;;
66721;SDS011;53633;49.932;10.884;2023-10-19T06:19:04;30.20;;;15.63;;
66721;SDS011;53633;49.932;10.884;2023-10-19T06:21:31;27.27;;;15.52;;
66721;SDS011;53633;49.932;10.884;2023-10-19T06:23:58;36.03;;;16.67;;
66721;SDS011;53633;49.932;10.884;2023-10-19T06:26:25;31.95;;;15.63;;
66721;SDS011;53633;49.932;10.884;2023-10-19T06:28:51;35.35;;;16.80;;
66721;SDS011;53633;49.932;10.884;2023-10-19T06:31:18;35.07;;;15.87;;
66721;SDS011;53633;49.932;10.884;2023-10-19T06:33:46;31.85;;;15.68;;
66721;SDS011;53633;49.932;10.884;2023-10-19T06:36:13;34.55;;;15.52;;
66721;SDS011;53633;49.932;10.884;2023-10-19T06:38:39;31.73;;;16.08;;
66721;SDS011;53633;49.932;10.884;2023-10-19T06:41:12;32.25;;;15.95;;
66721;SDS011;53633;49.932;10.884;2023-10-19T06:43:39;34.73;;;17.10;;
66721;SDS011;53633;49.932;10.884;2023-10-19T06:46:07;34.83;;;17.10;;
66721;SDS011;53633;49.932;10.884;2023-10-19T06:48:34;32.85;;;16.15;;
66721;SDS011;53633;49.932;10.884;2023-10-19T06:51:02;34.53;;;16.33;;
66721;SDS011;53633;49.932;10.884;2023-10-19T06:53:29;32.20;;;17.13;;
66721;SDS011;53633;49.932;10.884;2023-10-19T06:55:56;35.60;;;17.90;;
66721;SDS011;53633;49.932;10.884;2023-10-19T06:58:23;33.75;;;16.40;;
66721;SDS011;53633;49.932;10.884;2023-10-19T07:00:50;33.05;;;16.92;;
66721;SDS011;53633;49.932;10.884;2023-10-19T07:03:16;34.38;;;17.25;;
66721;SDS011;53633;49.932;10.884;2023-10-19T07:05:43;36.20;;;16.50;;
66721;SDS011;53633;49.932;10.884;2023-10-19T07:08:11;31.77;;;15.93;;
66721;SDS011;53633;49.932;10.884;2023-10-19T07:10:38;33.83;;;18.23;;
66721;SDS011;53633;49.932;10.884;2023-10-19T07:13:05;41.58;;;19.27;;
66721;SDS011;53633;49.932;10.884;2023-10-19T07:15:32;36.78;;;17.90;;
66721;SDS011;53633;49.932;10.884;2023-10-19T07:17:58;38.55;;;17.90;;
66721;SDS011;53633;49.932;10.884;2023-10-19T07:20:25;34.93;;;17.93;;
66721;SDS011;53633;49.932;10.884;2023-10-19T07:22:52;35.58;;;17.02;;
66721;SDS011;53633;49.932;10.884;2023-10-19T07:25:20;33.67;;;16.80;;
66721;SDS011;53633;49.932;10.884;2023-10-19T07:27:48;36.20;;;17.50;;
66721;SDS011;53633;49.932;10.884;2023-10-19T07:30:15;33.70;;;16.65;;
66721;SDS011;53633;49.932;10.884;2023-10-19T07:32:42;33.70;;;16.83;;
66721;SDS011;53633;49.932;10.884;2023-10-19T07:35:09;34.60;;;16.17;;
66721;SDS011;53633;49.932;10.884;2023-10-19T07:37:36;35.33;;;16.63;;
66721;SDS011;53633;49.932;10.884;2023-10-19T07:40:02;35.22;;;17.13;;
66721;SDS011;53633;49.932;10.884;2023-10-19T07:42:31;33.97;;;16.65;;
66721;SDS011;53633;49.932;10.884;2023-10-19T07:44:58;34.73;;;16.60;;
66721;SDS011;53633;49.932;10.884;2023-10-19T07:47:24;36.50;;;17.15;;
66721;SDS011;53633;49.932;10.884;2023-10-19T07:49:51;32.53;;;16.92;;
66721;SDS011;53633;49.932;10.884;2023-10-19T07:52:18;30.83;;;15.88;;
66721;SDS011;53633;49.932;10.884;2023-10-19T07:54:44;27.73;;;15.10;;
66721;SDS011;53633;49.932;10.884;2023-10-19T07:57:11;26.90;;;14.70;;
66721;SDS011;53633;49.932;10.884;2023-10-19T07:59:39;28.20;;;14.75;;
66721;SDS011;53633;49.932;10.884;2023-10-19T08:02:06;30.00;;;15.35;;
66721;SDS011;53633;49.932;10.884;2023-10-19T08:04:32;28.75;;;14.45;;
66721;SDS011;53633;49.932;10.884;2023-10-19T08:06:59;28.83;;;14.48;;
66721;SDS011;53633;49.932;10.884;2023-10-19T08:09:26;29.53;;;14.83;;
66721;SDS011;53633;49.932;10.884;2023-10-19T08:11:53;26.85;;;14.93;;
66721;SDS011;53633;49.932;10.884;2023-10-19T08:14:19;28.15;;;15.00;;
66721;SDS011;53633;49.932;10.884;2023-10-19T08:16:47;26.98;;;14.57;;
66721;SDS011;53633;49.932;10.884;2023-10-19T08:19:14;26.30;;;14.35;;
66721;SDS011;53633;49.932;10.884;2023-10-19T08:21:41;30.70;;;15.63;;
66721;SDS011;53633;49.932;10.884;2023-10-19T08:24:08;25.23;;;14.27;;
66721;SDS011;53633;49.932;10.884;2023-10-19T08:26:34;26.58;;;14.80;;
66721;SDS011;53633;49.932;10.884;2023-10-19T08:29:01;27.17;;;14.57;;
66721;SDS011;53633;49.932;10.884;2023-10-19T08:31:28;28.10;;;14.80;;
66721;SDS011;53633;49.932;10.884;2023-10-19T08:33:56;24.53;;;13.80;;
66721;SDS011;53633;49.932;10.884;2023-10-19T08:36:22;27.60;;;13.90;;
66721;SDS011;53633;49.932;10.884;2023-10-19T08:38:49;23.60;;;13.40;;
66721;SDS011;53633;49.932;10.884;2023-10-19T08:41:16;24.27;;;13.07;;
66721;SDS011;53633;49.932;10.884;2023-10-19T08:43:43;26.58;;;14.10;;
66721;SDS011;53633;49.932;10.884;2023-10-19T08:46:09;25.20;;;13.67;;
66721;SDS011;53633;49.932;10.884;2023-10-19T08:48:37;23.13;;;12.27;;
66721;SDS011;53633;49.932;10.884;2023-10-19T08:51:06;25.88;;;13.55;;
66721;SDS011;53633;49.932;10.884;2023-10-19T08:53:36;24.05;;;13.13;;
66721;SDS011;53633;49.932;10.884;2023-10-19T08:56:03;28.05;;;13.70;;
66721;SDS011;53633;49.932;10.884;2023-10-19T08:58:30;26.60;;;13.60;;
66721;SDS011;53633;49.932;10.884;2023-10-19T09:00:57;24.77;;;13.38;;
66721;SDS011;53633;49.932;10.884;2023-10-19T09:03:24;24.88;;;13.32;;
66721;SDS011;53633;49.932;10.884;2023-10-19T09:05:54;24.13;;;13.23;;
66721;SDS011;53633;49.932;10.884;2023-10-19T09:08:22;24.63;;;13.95;;
66721;SDS011;53633;49.932;10.884;2023-10-19T09:10:50;22.97;;;13.00;;
66721;SDS011;53633;49.932;10.884;2023-10-19T09:13:17;25.38;;;13.38;;
66721;SDS011;53633;49.932;10.884;2023-10-19T09:15:43;23.35;;;12.95;;
66721;SDS011;53633;49.932;10.884;2023-10-19T09:18:13;24.92;;;12.93;;
66721;SDS011;53633;49.932;10.884;2023-10-19T09:20:41;23.77;;;13.23;;
66721;SDS011;53633;49.932;10.884;2023-10-19T09:23:09;22.57;;;12.67;;
66721;SDS011;53633;49.932;10.884;2023-10-19T09:25:36;25.38;;;13.75;;
66721;SDS011;53633;49.932;10.884;2023-10-19T09:28:03;25.20;;;12.93;;
66721;SDS011;53633;49.932;10.884;2023-10-19T09:30:31;24.75;;;13.70;;
66721;SDS011;53633;49.932;10.884;2023-10-19T09:32:58;25.77;;;13.60;;
66721;SDS011;53633;49.932;10.884;2023-10-19T09:35:26;23.57;;;13.30;;
66721;SDS011;53633;49.932;10.884;2023-10-19T09:37:54;22.45;;;12.98;;
66721;SDS011;53633;49.932;10.884;2023-10-19T09:40:21;24.27;;;13.20;;
66721;SDS011;53633;49.932;10.884;2023-10-19T09:42:52;22.60;;;12.82;;
66721;SDS011;53633;49.932;10.884;2023-10-19T09:45:22;23.08;;;12.68;;
66721;SDS011;53633;49.932;10.884;2023-10-19T09:47:53;24.27;;;12.83;;
66721;SDS011;53633;49.932;10.884;2023-10-19T09:50:21;22.30;;;12.82;;
66721;SDS011;53633;49.932;10.884;2023-10-19T09:52:47;23.00;;;13.27;;
66721;SDS011;53633;49.932;10.884;2023-10-19T09:55:17;25.30;;;12.88;;
66721;SDS011;53633;49.932;10.884;2023-10-19T09:57:55;22.52;;;12.45;;
66721;SDS011;53633;49.932;10.884;2023-10-19T10:00:29;24.27;;;12.67;;
66721;SDS011;53633;49.932;10.884;2023-10-19T10:02:56;22.85;;;13.20;;
66721;SDS011;53633;49.932;10.884;2023-10-19T10:08:27;23.30;;;12.95;;
66721;SDS011;53633;49.932;10.884;2023-10-19T10:10:56;23.52;;;13.77;;
66721;SDS011;53633;49.932;10.884;2023-10-19T10:13:37;24.63;;;13.33;;
66721;SDS011;53633;49.932;10.884;2023-10-19T10:16:04;22.55;;;12.85;;
66721;SDS011;53633;49.932;10.884;2023-10-19T10:18:33;22.15;;;12.75;;
66721;SDS011;53633;49.932;10.884;2023-10-19T10:21:07;24.33;;;13.35;;
66721;SDS011;53633;49.932;10.884;2023-10-19T10:23:40;22.40;;;13.43;;
66721;SDS011;53633;49.932;10.884;2023-10-19T10:26:08;22.83;;;12.10;;
66721;SDS011;53633;49.932;10.884;2023-10-19T10:28:37;22.50;;;12.30;;
66721;SDS011;53633;49.932;10.884;2023-10-19T10:31:08;23.67;;;12.70;;
66721;SDS011;53633;49.932;10.884;2023-10-19T10:33:43;22.67;;;12.75;;
66721;SDS011;53633;49.932;10.884;2023-10-19T10:36:11;22.08;;;13.05;;
66721;SDS011;53633;49.932;10.884;2023-10-19T10:38:38;22.70;;;12.20;;
66721;SDS011;53633;49.932;10.884;2023-10-19T10:41:05;21.77;;;12.77;;
66721;SDS011;53633;49.932;10.884;2023-10-19T10:43:32;23.98;;;13.77;;
66721;SDS011;53633;49.932;10.884;2023-10-19T10:46:04;22.77;;;13.02;;
66721;SDS011;53633;49.932;10.884;2023-10-19T10:48:31;23.05;;;12.35;;
66721;SDS011;53633;49.932;10.884;2023-10-19T10:50:58;21.57;;;12.73;;
66721;SDS011;53633;49.932;10.884;2023-10-19T10:53:25;24.90;;;13.63;;
66721;SDS011;53633;49.932;10.884;2023-10-19T10:55:52;22.05;;;12.93;;
66721;SDS011;53633;49.932;10.884;2023-10-19T10:58:19;27.70;;;13.00;;
66721;SDS011;53633;49.932;10.884;2023-10-19T11:00:46;23.08;;;12.98;;
66721;SDS011;53633;49.932;10.884;2023-10-19T11:03:14;21.93;;;12.77;;
66721;SDS011;53633;49.932;10.884;2023-10-19T11:05:41;21.02;;;12.60;;
66721;SDS011;53633;49.932;10.884;2023-10-19T11:08:08;20.70;;;12.20;;
66721;SDS011;53633;49.932;10.884;2023-10-19T11:10:36;22.35;;;11.73;;
66721;SDS011;53633;49.932;10.884;2023-10-19T11:13:03;22.35;;;12.45;;
66721;SDS011;53633;49.932;10.884;2023-10-19T11:15:31;21.33;;;12.77;;
66721;SDS011;53633;49.932;10.884;2023-10-19T11:17:58;22.80;;;12.60;;
66721;SDS011;53633;49.932;10.884;2023-10-19T11:20:26;22.50;;;13.13;;
66721;SDS011;53633;49.932;10.884;2023-10-19T11:22:53;26.27;;;12.98;;
66721;SDS011;53633;49.932;10.884;2023-10-19T11:25:22;23.90;;;13.60;;
66721;SDS011;53633;49.932;10.884;2023-10-19T11:27:49;21.50;;;12.43;;
66721;SDS011;53633;49.932;10.884;2023-10-19T11:30:22;20.35;;;11.68;;
66721;SDS011;53633;49.932;10.884;2023-10-19T11:32:49;20.45;;;12.77;;
66721;SDS011;53633;49.932;10.884;2023-10-19T11:35:16;21.75;;;13.15;;
66721;SDS011;53633;49.932;10.884;2023-10-19T11:37:48;21.50;;;12.48;;
66721;SDS011;53633;49.932;10.884;2023-10-19T11:40:15;22.97;;;12.17;;
66721;SDS011;53633;49.932;10.884;2023-10-19T11:42:42;19.92;;;11.35;;
66721;SDS011;53633;49.932;10.884;2023-10-19T11:45:09;23.80;;;12.88;;
66721;SDS011;53633;49.932;10.884;2023-10-19T11:47:36;20.10;;;12.13;;
66721;SDS011;53633;49.932;10.884;2023-10-19T11:50:02;20.48;;;11.45;;
66721;SDS011;53633;49.932;10.884;2023-10-19T11:52:30;20.97;;;11.73;;
66721;SDS011;53633;49.932;10.884;2023-10-19T11:54:58;21.17;;;11.82;;
66721;SDS011;53633;49.932;10.884;2023-10-19T11:57:25;22.10;;;12.07;;
66721;SDS011;53633;49.932;10.884;2023-10-19T11:59:51;21.63;;;12.85;;
66721;SDS011;53633;49.932;10.884;2023-10-19T12:02:21;23.30;;;12.55;;
66721;SDS011;53633;49.932;10.884;2023-10-19T12:04:48;22.70;;;12.20;;
66721;SDS011;53633;49.932;10.884;2023-10-19T12:07:15;21.50;;;12.05;;
66721;SDS011;53633;49.932;10.884;2023-10-19T12:09:42;24.95;;;12.32;;
66721;SDS011;53633;49.932;10.884;2023-10-19T12:12:10;20.73;;;12.13;;
66721;SDS011;53633;49.932;10.884;2023-10-19T12:14:37;21.90;;;12.40;;
66721;SDS011;53633;49.932;10.884;2023-10-19T12:17:03;21.07;;;11.67;;
66721;SDS011;53633;49.932;10.884;2023-10-19T12:19:30;21.13;;;11.45;;
66721;SDS011;53633;49.932;10.884;2023-10-19T12:21:57;19.95;;;11.27;;
66721;SDS011;53633;49.932;10.884;2023-10-19T12:24:24;20.42;;;11.45;;
66721;SDS011;53633;49.932;10.884;2023-10-19T12:26:50;21.33;;;11.95;;
66721;SDS011;53633;49.932;10.884;2023-10-19T12:29:18;20.37;;;11.97;;
66721;SDS011;53633;49.932;10.884;2023-10-19T12:31:45;21.27;;;11.95;;
66721;SDS011;53633;49.932;10.884;2023-10-19T12:34:12;21.63;;;11.57;;
66721;SDS011;53633;49.932;10.884;2023-10-19T12:36:39;20.20;;;12.07;;
66721;SDS011;53633;49.932;10.884;2023-10-19T12:39:06;21.70;;;12.32;;
66721;SDS011;53633;49.932;10.884;2023-10-19T12:41:36;19.87;;;10.97;;
66721;SDS011;53633;49.932;10.884;2023-10-19T12:44:02;19.15;;;11.43;;
66721;SDS011;53633;49.932;10.884;2023-10-19T12:46:31;19.58;;;11.20;;
66721;SDS011;53633;49.932;10.884;2023-10-19T12:48:57;27.52;;;12.15;;
66721;SDS011;53633;49.932;10.884;2023-10-19T12:51:24;19.35;;;11.45;;
66721;SDS011;53633;49.932;10.884;2023-10-19T12:53:51;19.07;;;11.07;;
66721;SDS011;53633;49.932;10.884;2023-10-19T12:56:18;19.85;;;10.85;;
66721;SDS011;53633;49.932;10.884;2023-10-19T12:58:45;22.48;;;11.32;;
66721;SDS011;53633;49.932;10.884;2023-10-19T13:01:12;18.77;;;10.30;;
66721;SDS011;53633;49.932;10.884;2023-10-19T13:03:40;18.05;;;10.60;;
66721;SDS011;53633;49.932;10.884;2023-10-19T13:06:06;22.40;;;10.77;;
66721;SDS011;53633;49.932;10.884;2023-10-19T13:08:33;18.00;;;10.23;;
66721;SDS011;53633;49.932;10.884;2023-10-19T13:11:00;19.33;;;10.38;;
66721;SDS011;53633;49.932;10.884;2023-10-19T13:13:41;18.65;;;10.43;;
66721;SDS011;53633;49.932;10.884;2023-10-19T13:16:08;19.35;;;10.93;;
66721;SDS011;53633;49.932;10.884;2023-10-19T13:18:35;18.33;;;9.67;;
66721;SDS011;53633;49.932;10.884;2023-10-19T13:21:03;20.77;;;10.77;;
66721;SDS011;53633;49.932;10.884;2023-10-19T13:23:29;19.95;;;9.95;;
66721;SDS011;53633;49.932;10.884;2023-10-19T13:25:56;18.48;;;9.95;;
66721;SDS011;53633;49.932;10.884;2023-10-19T13:28:23;18.05;;;10.35;;
66721;SDS011;53633;49.932;10.884;2023-10-19T13:30:50;17.63;;;10.90;;
66721;SDS011;53633;49.932;10.884;2023-10-19T13:33:17;17.55;;;10.68;;
66721;SDS011;53633;49.932;10.884;2023-10-19T13:35:45;18.33;;;10.98;;
66721;SDS011;53633;49.932;10.884;2023-10-19T13:38:14;17.80;;;10.40;;
66721;SDS011;53633;49.932;10.884;2023-10-19T13:40:42;18.92;;;10.50;;
66721;SDS011;53633;49.932;10.884;2023-10-19T13:43:09;19.27;;;10.97;;
66721;SDS011;53633;49.932;10.884;2023-10-19T13:45:37;18.17;;;10.85;;
66721;SDS011;53633;49.932;10.884;2023-10-19T13:48:04;17.92;;;10.63;;
66721;SDS011;53633;49.932;10.884;2023-10-19T13:50:32;19.13;;;10.73;;
66721;SDS011;53633;49.932;10.884;2023-10-19T13:52:59;20.58;;;11.80;;
66721;SDS011;53633;49.932;10.884;2023-10-19T13:55:29;20.37;;;11.67;;
66721;SDS011;53633;49.932;10.884;2023-10-19T13:57:55;20.05;;;11.25;;
66721;SDS011;53633;49.932;10.884;2023-10-19T14:00:23;18.63;;;11.05;;
66721;SDS011;53633;49.932;10.884;2023-10-19T14:02:50;27.65;;;16.55;;
66721;SDS011;53633;49.932;10.884;2023-10-19T14:05:17;22.65;;;13.60;;
66721;SDS011;53633;49.932;10.884;2023-10-19T14:07:45;20.23;;;12.17;;
66721;SDS011;53633;49.932;10.884;2023-10-19T14:10:12;21.77;;;11.85;;
66721;SDS011;53633;49.932;10.884;2023-10-19T14:12:41;20.38;;;11.52;;